sensor_id;sensor_type;location;lat;lon;timestamp;P1;durP1;ratioP1;P2;durP2;ratioP2
46210;SDS011;52144;48.040;-1.594;2023-04-03T00:00:46;6.47;;;2.50;;
46210;SDS011;52144;48.040;-1.594;2023-04-03T00:03:15;3.53;;;1.60;;
46210;SDS011;52144;48.040;-1.594;2023-04-03T00:05:45;4.53;;;2.38;;
46210;SDS011;52144;48.040;-1.594;2023-04-03T00:08:13;9.20;;;2.38;;
46210;SDS011;52144;48.040;-1.594;2023-04-03T00:10:41;4.32;;;2.53;;
46210;SDS011;52144;48.040;-1.594;2023-04-03T00:13:09;3.85;;;2.50;;
46210;SDS011;52144;48.040;-1.594;2023-04-03T00:15:38;6.88;;;2.78;;
46210;SDS011;52144;48.040;-1.594;2023-04-03T00:18:06;18.20;;;3.53;;
46210;SDS011;52144;48.040;-1.594;2023-04-03T00:20:35;10.27;;;2.63;;
46210;SDS011;52144;48.040;-1.594;2023-04-03T00:23:04;6.53;;;2.95;;
46210;SDS011;52144;48.040;-1.594;2023-04-03T00:25:32;10.82;;;3.65;;
46210;SDS011;52144;48.040;-1.594;2023-04-03T00:28:00;4.30;;;2.47;;
46210;SDS011;52144;48.040;-1.594;2023-04-03T00:30:29;6.60;;;2.45;;
46210;SDS011;52144;48.040;-1.594;2023-04-03T00:32:57;6.07;;;1.85;;
46210;SDS011;52144;48.040;-1.594;2023-04-03T00:35:26;10.93;;;3.00;;
46210;SDS011;52144;48.040;-1.594;2023-04-03T00:37:55;2.45;;;1.70;;
46210;SDS011;52144;48.040;-1.594;2023-04-03T00:40:25;4.45;;;2.72;;
46210;SDS011;52144;48.040;-1.594;2023-04-03T00:42:56;3.00;;;1.70;;
46210;SDS011;52144;48.040;-1.594;2023-04-03T00:45:29;2.67;;;1.92;;
46210;SDS011;52144;48.040;-1.594;2023-04-03T00:48:03;3.65;;;2.30;;
46210;SDS011;52144;48.040;-1.594;2023-04-03T00:50:34;6.47;;;2.47;;
46210;SDS011;52144;48.040;-1.594;2023-04-03T00:53:05;5.38;;;2.42;;
46210;SDS011;52144;48.040;-1.594;2023-04-03T00:55:37;8.07;;;2.92;;
46210;SDS011;52144;48.040;-1.594;2023-04-03T00:58:06;4.53;;;1.90;;
46210;SDS011;52144;48.040;-1.594;2023-04-03T01:00:35;4.53;;;2.53;;
46210;SDS011;52144;48.040;-1.594;2023-04-03T01:03:06;5.22;;;3.17;;
46210;SDS011;52144;48.040;-1.594;2023-04-03T01:05:34;9.27;;;2.67;;
46210;SDS011;52144;48.040;-1.594;2023-04-03T01:08:02;10.82;;;2.35;;
46210;SDS011;52144;48.040;-1.594;2023-04-03T01:10:30;3.10;;;1.92;;
46210;SDS011;52144;48.040;-1.594;2023-04-03T01:12:59;2.65;;;2.25;;
46210;SDS011;52144;48.040;-1.594;2023-04-03T01:15:28;3.70;;;1.80;;
46210;SDS011;52144;48.040;-1.594;2023-04-03T01:18:01;1.92;;;1.73;;
46210;SDS011;52144;48.040;-1.594;2023-04-03T01:20:35;1.80;;;1.70;;
46210;SDS011;52144;48.040;-1.594;2023-04-03T01:23:17;3.58;;;1.48;;
46210;SDS011;52144;48.040;-1.594;2023-04-03T01:25:53;8.75;;;2.45;;
46210;SDS011;52144;48.040;-1.594;2023-04-03T01:28:25;6.53;;;2.45;;
46210;SDS011;52144;48.040;-1.594;2023-04-03T01:30:57;6.80;;;2.40;;
46210;SDS011;52144;48.040;-1.594;2023-04-03T01:33:31;9.15;;;2.50;;
46210;SDS011;52144;48.040;-1.594;2023-04-03T01:35:59;4.40;;;2.33;;
46210;SDS011;52144;48.040;-1.594;2023-04-03T01:38:27;9.77;;;3.40;;
46210;SDS011;52144;48.040;-1.594;2023-04-03T01:40:55;10.30;;;2.10;;
46210;SDS011;52144;48.040;-1.594;2023-04-03T01:43:23;14.88;;;2.75;;
46210;SDS011;52144;48.040;-1.594;2023-04-03T01:45:51;11.00;;;3.05;;
46210;SDS011;52144;48.040;-1.594;2023-04-03T01:48:21;6.68;;;2.20;;
46210;SDS011;52144;48.040;-1.594;2023-04-03T01:50:50;4.53;;;2.30;;
46210;SDS011;52144;48.040;-1.594;2023-04-03T01:53:17;4.65;;;2.20;;
46210;SDS011;52144;48.040;-1.594;2023-04-03T01:55:45;9.13;;;2.15;;
46210;SDS011;52144;48.040;-1.594;2023-04-03T01:58:13;4.28;;;2.00;;
46210;SDS011;52144;48.040;-1.594;2023-04-03T02:00:41;2.25;;;2.05;;
46210;SDS011;52144;48.040;-1.594;2023-04-03T02:03:09;5.60;;;2.13;;
46210;SDS011;52144;48.040;-1.594;2023-04-03T02:05:37;3.47;;;1.83;;
46210;SDS011;52144;48.040;-1.594;2023-04-03T02:08:07;6.88;;;2.65;;
46210;SDS011;52144;48.040;-1.594;2023-04-03T02:10:34;4.38;;;2.50;;
46210;SDS011;52144;48.040;-1.594;2023-04-03T02:13:03;9.77;;;2.63;;
46210;SDS011;52144;48.040;-1.594;2023-04-03T02:15:31;6.50;;;2.17;;
46210;SDS011;52144;48.040;-1.594;2023-04-03T02:17:58;5.03;;;2.03;;
46210;SDS011;52144;48.040;-1.594;2023-04-03T02:20:32;5.55;;;2.42;;
46210;SDS011;52144;48.040;-1.594;2023-04-03T02:23:01;6.50;;;2.28;;
46210;SDS011;52144;48.040;-1.594;2023-04-03T02:25:31;2.33;;;1.75;;
46210;SDS011;52144;48.040;-1.594;2023-04-03T02:28:03;8.38;;;2.40;;
46210;SDS011;52144;48.040;-1.594;2023-04-03T02:30:31;8.88;;;2.28;;
46210;SDS011;52144;48.040;-1.594;2023-04-03T02:32:59;10.35;;;3.15;;
46210;SDS011;52144;48.040;-1.594;2023-04-03T02:35:27;4.15;;;2.25;;
46210;SDS011;52144;48.040;-1.594;2023-04-03T02:37:54;6.93;;;2.80;;
46210;SDS011;52144;48.040;-1.594;2023-04-03T02:40:22;16.23;;;3.72;;
46210;SDS011;52144;48.040;-1.594;2023-04-03T02:42:51;7.07;;;2.85;;
46210;SDS011;52144;48.040;-1.594;2023-04-03T02:45:19;6.80;;;3.58;;
46210;SDS011;52144;48.040;-1.594;2023-04-03T02:47:47;3.33;;;2.30;;
46210;SDS011;52144;48.040;-1.594;2023-04-03T02:50:15;11.43;;;3.00;;
46210;SDS011;52144;48.040;-1.594;2023-04-03T02:52:42;5.15;;;2.10;;
46210;SDS011;52144;48.040;-1.594;2023-04-03T02:55:12;6.97;;;2.75;;
46210;SDS011;52144;48.040;-1.594;2023-04-03T02:57:41;9.15;;;2.60;;
46210;SDS011;52144;48.040;-1.594;2023-04-03T03:00:11;4.40;;;1.92;;
46210;SDS011;52144;48.040;-1.594;2023-04-03T03:02:39;4.40;;;2.00;;
46210;SDS011;52144;48.040;-1.594;2023-04-03T03:05:07;7.93;;;3.22;;
46210;SDS011;52144;48.040;-1.594;2023-04-03T03:07:36;5.45;;;1.92;;
46210;SDS011;52144;48.040;-1.594;2023-04-03T03:10:04;4.32;;;2.03;;
46210;SDS011;52144;48.040;-1.594;2023-04-03T03:12:32;4.60;;;1.55;;
46210;SDS011;52144;48.040;-1.594;2023-04-03T03:15:00;10.20;;;3.15;;
46210;SDS011;52144;48.040;-1.594;2023-04-03T03:17:29;7.88;;;2.10;;
46210;SDS011;52144;48.040;-1.594;2023-04-03T03:19:57;5.85;;;2.22;;
46210;SDS011;52144;48.040;-1.594;2023-04-03T03:22:25;4.75;;;2.13;;
46210;SDS011;52144;48.040;-1.594;2023-04-03T03:24:54;5.60;;;2.28;;
46210;SDS011;52144;48.040;-1.594;2023-04-03T03:27:22;6.25;;;2.63;;
46210;SDS011;52144;48.040;-1.594;2023-04-03T03:29:50;8.98;;;2.35;;
46210;SDS011;52144;48.040;-1.594;2023-04-03T03:32:18;2.40;;;1.42;;
46210;SDS011;52144;48.040;-1.594;2023-04-03T03:34:48;2.10;;;1.60;;
46210;SDS011;52144;48.040;-1.594;2023-04-03T03:37:16;4.60;;;2.53;;
46210;SDS011;52144;48.040;-1.594;2023-04-03T03:39:43;9.55;;;2.53;;
46210;SDS011;52144;48.040;-1.594;2023-04-03T03:42:11;5.13;;;2.63;;
46210;SDS011;52144;48.040;-1.594;2023-04-03T03:44:39;8.18;;;2.47;;
46210;SDS011;52144;48.040;-1.594;2023-04-03T03:47:07;6.28;;;1.83;;
46210;SDS011;52144;48.040;-1.594;2023-04-03T03:49:36;3.15;;;1.98;;
46210;SDS011;52144;48.040;-1.594;2023-04-03T03:52:06;7.60;;;2.70;;
46210;SDS011;52144;48.040;-1.594;2023-04-03T03:54:36;10.63;;;2.60;;
46210;SDS011;52144;48.040;-1.594;2023-04-03T03:57:05;10.35;;;2.10;;
46210;SDS011;52144;48.040;-1.594;2023-04-03T03:59:33;10.55;;;2.13;;
46210;SDS011;52144;48.040;-1.594;2023-04-03T04:02:00;3.30;;;2.00;;
46210;SDS011;52144;48.040;-1.594;2023-04-03T04:04:28;4.20;;;1.50;;
46210;SDS011;52144;48.040;-1.594;2023-04-03T04:06:56;5.85;;;2.08;;
46210;SDS011;52144;48.040;-1.594;2023-04-03T04:09:25;2.85;;;1.67;;
46210;SDS011;52144;48.040;-1.594;2023-04-03T04:11:53;5.07;;;2.60;;
46210;SDS011;52144;48.040;-1.594;2023-04-03T04:14:21;8.20;;;2.50;;
46210;SDS011;52144;48.040;-1.594;2023-04-03T04:16:49;6.97;;;1.75;;
46210;SDS011;52144;48.040;-1.594;2023-04-03T04:19:17;9.82;;;2.65;;
46210;SDS011;52144;48.040;-1.594;2023-04-03T04:21:44;3.15;;;1.67;;
46210;SDS011;52144;48.040;-1.594;2023-04-03T04:24:12;5.85;;;2.53;;
46210;SDS011;52144;48.040;-1.594;2023-04-03T04:26:42;6.55;;;1.88;;
46210;SDS011;52144;48.040;-1.594;2023-04-03T04:29:09;6.50;;;2.13;;
46210;SDS011;52144;48.040;-1.594;2023-04-03T04:31:37;7.90;;;3.28;;
46210;SDS011;52144;48.040;-1.594;2023-04-03T04:34:05;7.80;;;2.03;;
46210;SDS011;52144;48.040;-1.594;2023-04-03T04:36:33;4.40;;;2.10;;
46210;SDS011;52144;48.040;-1.594;2023-04-03T04:39:01;8.18;;;2.25;;
46210;SDS011;52144;48.040;-1.594;2023-04-03T04:41:29;9.07;;;2.95;;
46210;SDS011;52144;48.040;-1.594;2023-04-03T04:43:58;7.43;;;3.78;;
46210;SDS011;52144;48.040;-1.594;2023-04-03T04:46:26;5.57;;;2.30;;
46210;SDS011;52144;48.040;-1.594;2023-04-03T04:48:53;5.13;;;2.40;;
46210;SDS011;52144;48.040;-1.594;2023-04-03T04:51:22;8.52;;;2.45;;
46210;SDS011;52144;48.040;-1.594;2023-04-03T04:53:49;6.53;;;1.83;;
46210;SDS011;52144;48.040;-1.594;2023-04-03T04:56:20;5.03;;;1.88;;
46210;SDS011;52144;48.040;-1.594;2023-04-03T04:58:48;8.70;;;2.30;;
46210;SDS011;52144;48.040;-1.594;2023-04-03T05:01:17;6.75;;;2.67;;
46210;SDS011;52144;48.040;-1.594;2023-04-03T05:03:45;13.88;;;2.35;;
46210;SDS011;52144;48.040;-1.594;2023-04-03T05:06:14;15.18;;;2.40;;
46210;SDS011;52144;48.040;-1.594;2023-04-03T05:08:41;11.27;;;2.58;;
46210;SDS011;52144;48.040;-1.594;2023-04-03T05:11:09;7.43;;;2.42;;
46210;SDS011;52144;48.040;-1.594;2023-04-03T05:13:37;3.78;;;2.65;;
46210;SDS011;52144;48.040;-1.594;2023-04-03T05:16:05;7.47;;;2.42;;
46210;SDS011;52144;48.040;-1.594;2023-04-03T05:18:34;3.85;;;2.25;;
46210;SDS011;52144;48.040;-1.594;2023-04-03T05:21:02;4.03;;;2.38;;
46210;SDS011;52144;48.040;-1.594;2023-04-03T05:23:30;7.07;;;2.78;;
46210;SDS011;52144;48.040;-1.594;2023-04-03T05:25:58;2.25;;;2.05;;
46210;SDS011;52144;48.040;-1.594;2023-04-03T05:28:26;3.20;;;2.50;;
46210;SDS011;52144;48.040;-1.594;2023-04-03T05:30:54;5.35;;;2.45;;
46210;SDS011;52144;48.040;-1.594;2023-04-03T05:33:22;11.65;;;2.40;;
46210;SDS011;52144;48.040;-1.594;2023-04-03T05:35:54;5.85;;;2.38;;
46210;SDS011;52144;48.040;-1.594;2023-04-03T05:38:22;13.68;;;3.42;;
46210;SDS011;52144;48.040;-1.594;2023-04-03T05:40:50;7.30;;;2.20;;
46210;SDS011;52144;48.040;-1.594;2023-04-03T05:43:18;5.20;;;2.80;;
46210;SDS011;52144;48.040;-1.594;2023-04-03T05:45:46;4.40;;;2.38;;
46210;SDS011;52144;48.040;-1.594;2023-04-03T05:48:14;7.45;;;3.80;;
46210;SDS011;52144;48.040;-1.594;2023-04-03T05:50:42;4.28;;;2.63;;
46210;SDS011;52144;48.040;-1.594;2023-04-03T05:53:12;7.28;;;2.45;;
46210;SDS011;52144;48.040;-1.594;2023-04-03T05:55:45;4.97;;;2.88;;
46210;SDS011;52144;48.040;-1.594;2023-04-03T05:58:12;6.60;;;2.60;;
46210;SDS011;52144;48.040;-1.594;2023-04-03T06:00:40;9.48;;;3.50;;
46210;SDS011;52144;48.040;-1.594;2023-04-03T06:03:08;6.15;;;3.28;;
46210;SDS011;52144;48.040;-1.594;2023-04-03T06:05:36;4.70;;;3.80;;
46210;SDS011;52144;48.040;-1.594;2023-04-03T06:08:04;5.80;;;2.78;;
46210;SDS011;52144;48.040;-1.594;2023-04-03T06:10:34;11.25;;;3.97;;
46210;SDS011;52144;48.040;-1.594;2023-04-03T06:13:02;5.28;;;2.92;;
46210;SDS011;52144;48.040;-1.594;2023-04-03T06:15:30;6.20;;;2.67;;
46210;SDS011;52144;48.040;-1.594;2023-04-03T06:17:58;4.10;;;2.90;;
46210;SDS011;52144;48.040;-1.594;2023-04-03T06:20:25;8.13;;;3.53;;
46210;SDS011;52144;48.040;-1.594;2023-04-03T06:22:53;6.40;;;2.88;;
46210;SDS011;52144;48.040;-1.594;2023-04-03T06:25:21;5.85;;;3.33;;
46210;SDS011;52144;48.040;-1.594;2023-04-03T06:27:50;7.35;;;3.15;;
46210;SDS011;52144;48.040;-1.594;2023-04-03T06:30:18;6.18;;;3.13;;
46210;SDS011;52144;48.040;-1.594;2023-04-03T06:32:46;8.40;;;3.13;;
46210;SDS011;52144;48.040;-1.594;2023-04-03T06:35:14;6.95;;;4.15;;
46210;SDS011;52144;48.040;-1.594;2023-04-03T06:37:42;8.32;;;3.38;;
46210;SDS011;52144;48.040;-1.594;2023-04-03T06:40:11;7.60;;;4.20;;
46210;SDS011;52144;48.040;-1.594;2023-04-03T06:42:45;5.65;;;4.45;;
46210;SDS011;52144;48.040;-1.594;2023-04-03T06:45:16;9.55;;;3.70;;
46210;SDS011;52144;48.040;-1.594;2023-04-03T06:47:44;7.68;;;3.65;;
46210;SDS011;52144;48.040;-1.594;2023-04-03T06:50:12;4.32;;;3.88;;
46210;SDS011;52144;48.040;-1.594;2023-04-03T06:52:41;11.20;;;4.00;;
46210;SDS011;52144;48.040;-1.594;2023-04-03T06:55:09;12.82;;;3.92;;
46210;SDS011;52144;48.040;-1.594;2023-04-03T06:57:37;3.92;;;3.38;;
46210;SDS011;52144;48.040;-1.594;2023-04-03T07:00:06;6.28;;;3.20;;
46210;SDS011;52144;48.040;-1.594;2023-04-03T07:02:36;5.22;;;2.95;;
46210;SDS011;52144;48.040;-1.594;2023-04-03T07:05:04;6.95;;;3.42;;
46210;SDS011;52144;48.040;-1.594;2023-04-03T07:07:33;7.03;;;3.60;;
46210;SDS011;52144;48.040;-1.594;2023-04-03T07:10:01;11.27;;;4.50;;
46210;SDS011;52144;48.040;-1.594;2023-04-03T07:12:29;6.38;;;4.55;;
46210;SDS011;52144;48.040;-1.594;2023-04-03T07:14:57;9.60;;;4.20;;
46210;SDS011;52144;48.040;-1.594;2023-04-03T07:17:25;7.80;;;3.58;;
46210;SDS011;52144;48.040;-1.594;2023-04-03T07:19:54;3.63;;;3.33;;
46210;SDS011;52144;48.040;-1.594;2023-04-03T07:22:22;7.22;;;4.28;;
46210;SDS011;52144;48.040;-1.594;2023-04-03T07:24:50;10.10;;;4.72;;
46210;SDS011;52144;48.040;-1.594;2023-04-03T07:27:18;5.40;;;3.80;;
46210;SDS011;52144;48.040;-1.594;2023-04-03T07:29:45;3.88;;;2.88;;
46210;SDS011;52144;48.040;-1.594;2023-04-03T07:32:14;13.82;;;3.88;;
46210;SDS011;52144;48.040;-1.594;2023-04-03T07:34:43;3.90;;;3.60;;
46210;SDS011;52144;48.040;-1.594;2023-04-03T07:37:13;8.55;;;4.45;;
46210;SDS011;52144;48.040;-1.594;2023-04-03T07:39:43;4.78;;;3.05;;
46210;SDS011;52144;48.040;-1.594;2023-04-03T07:42:11;3.83;;;3.50;;
46210;SDS011;52144;48.040;-1.594;2023-04-03T07:44:39;12.15;;;4.35;;
46210;SDS011;52144;48.040;-1.594;2023-04-03T07:47:07;12.48;;;5.03;;
46210;SDS011;52144;48.040;-1.594;2023-04-03T07:49:35;4.20;;;3.78;;
46210;SDS011;52144;48.040;-1.594;2023-04-03T07:52:06;4.05;;;3.15;;
46210;SDS011;52144;48.040;-1.594;2023-04-03T07:54:36;7.82;;;3.30;;
46210;SDS011;52144;48.040;-1.594;2023-04-03T07:57:04;8.00;;;4.38;;
46210;SDS011;52144;48.040;-1.594;2023-04-03T07:59:32;7.13;;;4.10;;
46210;SDS011;52144;48.040;-1.594;2023-04-03T08:02:01;5.55;;;3.05;;
46210;SDS011;52144;48.040;-1.594;2023-04-03T08:04:31;9.65;;;4.47;;
46210;SDS011;52144;48.040;-1.594;2023-04-03T08:06:59;6.88;;;3.72;;
46210;SDS011;52144;48.040;-1.594;2023-04-03T08:09:27;14.43;;;4.45;;
46210;SDS011;52144;48.040;-1.594;2023-04-03T08:11:56;12.75;;;3.92;;
46210;SDS011;52144;48.040;-1.594;2023-04-03T08:14:24;4.75;;;3.45;;
46210;SDS011;52144;48.040;-1.594;2023-04-03T08:16:52;11.05;;;4.40;;
46210;SDS011;52144;48.040;-1.594;2023-04-03T08:19:20;9.07;;;3.63;;
46210;SDS011;52144;48.040;-1.594;2023-04-03T08:21:52;5.95;;;3.95;;
46210;SDS011;52144;48.040;-1.594;2023-04-03T08:24:20;5.78;;;3.67;;
46210;SDS011;52144;48.040;-1.594;2023-04-03T08:26:48;7.18;;;3.75;;
46210;SDS011;52144;48.040;-1.594;2023-04-03T08:29:17;8.02;;;3.30;;
46210;SDS011;52144;48.040;-1.594;2023-04-03T08:31:45;4.80;;;2.85;;
46210;SDS011;52144;48.040;-1.594;2023-04-03T08:34:13;5.47;;;3.53;;
46210;SDS011;52144;48.040;-1.594;2023-04-03T08:36:41;8.82;;;3.75;;
46210;SDS011;52144;48.040;-1.594;2023-04-03T08:39:09;18.75;;;3.88;;
46210;SDS011;52144;48.040;-1.594;2023-04-03T08:41:38;6.05;;;4.93;;
46210;SDS011;52144;48.040;-1.594;2023-04-03T08:44:14;8.48;;;4.18;;
46210;SDS011;52144;48.040;-1.594;2023-04-03T08:46:54;6.10;;;4.68;;
46210;SDS011;52144;48.040;-1.594;2023-04-03T08:49:31;8.93;;;4.63;;
46210;SDS011;52144;48.040;-1.594;2023-04-03T08:52:02;5.68;;;3.83;;
46210;SDS011;52144;48.040;-1.594;2023-04-03T08:54:37;7.25;;;4.25;;
46210;SDS011;52144;48.040;-1.594;2023-04-03T08:57:15;5.63;;;3.97;;
46210;SDS011;52144;48.040;-1.594;2023-04-03T08:59:44;7.35;;;3.95;;
46210;SDS011;52144;48.040;-1.594;2023-04-03T09:02:21;7.25;;;4.20;;
46210;SDS011;52144;48.040;-1.594;2023-04-03T09:04:54;6.20;;;3.90;;
46210;SDS011;52144;48.040;-1.594;2023-04-03T09:07:25;13.93;;;4.10;;
46210;SDS011;52144;48.040;-1.594;2023-04-03T09:10:00;9.07;;;5.40;;
46210;SDS011;52144;48.040;-1.594;2023-04-03T09:12:32;10.82;;;4.57;;
46210;SDS011;52144;48.040;-1.594;2023-04-03T09:15:05;5.57;;;4.40;;
46210;SDS011;52144;48.040;-1.594;2023-04-03T09:17:55;14.73;;;5.30;;
46210;SDS011;52144;48.040;-1.594;2023-04-03T09:20:31;9.43;;;3.97;;
46210;SDS011;52144;48.040;-1.594;2023-04-03T09:23:11;10.48;;;4.63;;
46210;SDS011;52144;48.040;-1.594;2023-04-03T09:25:45;6.88;;;4.70;;
46210;SDS011;52144;48.040;-1.594;2023-04-03T09:28:13;7.63;;;4.57;;
46210;SDS011;52144;48.040;-1.594;2023-04-03T09:30:41;8.25;;;5.68;;
46210;SDS011;52144;48.040;-1.594;2023-04-03T09:33:10;7.55;;;4.22;;
46210;SDS011;52144;48.040;-1.594;2023-04-03T09:35:40;5.80;;;4.32;;
46210;SDS011;52144;48.040;-1.594;2023-04-03T09:38:15;9.30;;;4.80;;
46210;SDS011;52144;48.040;-1.594;2023-04-03T09:40:48;19.10;;;4.78;;
46210;SDS011;52144;48.040;-1.594;2023-04-03T09:43:23;11.50;;;4.47;;
46210;SDS011;52144;48.040;-1.594;2023-04-03T09:45:55;7.97;;;4.93;;
46210;SDS011;52144;48.040;-1.594;2023-04-03T09:48:55;8.65;;;5.10;;
46210;SDS011;52144;48.040;-1.594;2023-04-03T09:51:33;10.93;;;5.50;;
46210;SDS011;52144;48.040;-1.594;2023-04-03T09:54:02;6.45;;;3.88;;
46210;SDS011;52144;48.040;-1.594;2023-04-03T09:57:04;8.10;;;4.82;;
46210;SDS011;52144;48.040;-1.594;2023-04-03T09:59:35;8.30;;;4.97;;
46210;SDS011;52144;48.040;-1.594;2023-04-03T10:02:16;9.70;;;5.43;;
46210;SDS011;52144;48.040;-1.594;2023-04-03T10:04:53;8.55;;;5.25;;
46210;SDS011;52144;48.040;-1.594;2023-04-03T10:07:35;10.30;;;4.82;;
46210;SDS011;52144;48.040;-1.594;2023-04-03T10:10:19;10.32;;;5.47;;
46210;SDS011;52144;48.040;-1.594;2023-04-03T10:13:00;8.43;;;5.15;;
46210;SDS011;52144;48.040;-1.594;2023-04-03T10:15:32;9.18;;;5.63;;
46210;SDS011;52144;48.040;-1.594;2023-04-03T10:18:07;13.18;;;6.13;;
46210;SDS011;52144;48.040;-1.594;2023-04-03T10:20:55;8.77;;;4.95;;
46210;SDS011;52144;48.040;-1.594;2023-04-03T10:23:28;8.15;;;5.38;;
46210;SDS011;52144;48.040;-1.594;2023-04-03T10:26:02;15.65;;;5.22;;
46210;SDS011;52144;48.040;-1.594;2023-04-03T10:28:43;11.20;;;5.20;;
46210;SDS011;52144;48.040;-1.594;2023-04-03T10:31:18;12.63;;;5.97;;
46210;SDS011;52144;48.040;-1.594;2023-04-03T10:33:55;10.57;;;6.15;;
46210;SDS011;52144;48.040;-1.594;2023-04-03T10:36:38;10.10;;;5.50;;
46210;SDS011;52144;48.040;-1.594;2023-04-03T10:39:15;12.35;;;5.93;;
46210;SDS011;52144;48.040;-1.594;2023-04-03T10:41:56;8.02;;;5.30;;
46210;SDS011;52144;48.040;-1.594;2023-04-03T10:44:47;10.82;;;5.25;;
46210;SDS011;52144;48.040;-1.594;2023-04-03T10:47:24;12.50;;;5.07;;
46210;SDS011;52144;48.040;-1.594;2023-04-03T10:50:20;9.77;;;5.05;;
46210;SDS011;52144;48.040;-1.594;2023-04-03T10:52:55;8.18;;;5.38;;
46210;SDS011;52144;48.040;-1.594;2023-04-03T10:55:30;7.10;;;4.35;;
46210;SDS011;52144;48.040;-1.594;2023-04-03T10:58:04;7.35;;;4.57;;
46210;SDS011;52144;48.040;-1.594;2023-04-03T11:00:35;12.52;;;5.20;;
46210;SDS011;52144;48.040;-1.594;2023-04-03T11:03:08;10.50;;;5.50;;
46210;SDS011;52144;48.040;-1.594;2023-04-03T11:05:43;9.07;;;5.43;;
46210;SDS011;52144;48.040;-1.594;2023-04-03T11:08:15;7.50;;;4.90;;
46210;SDS011;52144;48.040;-1.594;2023-04-03T11:10:53;11.38;;;4.95;;
46210;SDS011;52144;48.040;-1.594;2023-04-03T11:13:26;10.38;;;5.35;;
46210;SDS011;52144;48.040;-1.594;2023-04-03T11:15:59;11.20;;;4.82;;
46210;SDS011;52144;48.040;-1.594;2023-04-03T11:18:28;9.77;;;5.75;;
46210;SDS011;52144;48.040;-1.594;2023-04-03T11:21:04;6.20;;;4.38;;
46210;SDS011;52144;48.040;-1.594;2023-04-03T11:23:39;9.32;;;5.72;;
46210;SDS011;52144;48.040;-1.594;2023-04-03T11:26:15;8.57;;;4.72;;
46210;SDS011;52144;48.040;-1.594;2023-04-03T11:28:47;8.30;;;4.15;;
46210;SDS011;52144;48.040;-1.594;2023-04-03T11:31:24;8.80;;;4.95;;
46210;SDS011;52144;48.040;-1.594;2023-04-03T11:34:04;10.18;;;5.35;;
46210;SDS011;52144;48.040;-1.594;2023-04-03T11:36:42;9.57;;;4.88;;
46210;SDS011;52144;48.040;-1.594;2023-04-03T11:39:16;12.60;;;5.90;;
46210;SDS011;52144;48.040;-1.594;2023-04-03T11:41:49;7.03;;;5.13;;
46210;SDS011;52144;48.040;-1.594;2023-04-03T11:44:30;9.82;;;4.78;;
46210;SDS011;52144;48.040;-1.594;2023-04-03T11:47:02;7.90;;;5.15;;
46210;SDS011;52144;48.040;-1.594;2023-04-03T11:49:51;11.27;;;6.25;;
46210;SDS011;52144;48.040;-1.594;2023-04-03T11:58:40;7.45;;;4.50;;
46210;SDS011;52144;48.040;-1.594;2023-04-03T12:01:49;8.18;;;5.18;;
46210;SDS011;52144;48.040;-1.594;2023-04-03T12:04:18;8.77;;;5.47;;
46210;SDS011;52144;48.040;-1.594;2023-04-03T12:12:58;8.50;;;4.93;;
46210;SDS011;52144;48.040;-1.594;2023-04-03T12:21:23;6.93;;;4.80;;
46210;SDS011;52144;48.040;-1.594;2023-04-03T12:24:04;8.85;;;5.05;;
46210;SDS011;52144;48.040;-1.594;2023-04-03T12:27:02;8.90;;;5.10;;
46210;SDS011;52144;48.040;-1.594;2023-04-03T12:29:47;7.38;;;5.10;;
46210;SDS011;52144;48.040;-1.594;2023-04-03T12:32:24;9.10;;;4.18;;
46210;SDS011;52144;48.040;-1.594;2023-04-03T12:35:08;9.35;;;4.95;;
46210;SDS011;52144;48.040;-1.594;2023-04-03T12:37:48;5.10;;;3.28;;
46210;SDS011;52144;48.040;-1.594;2023-04-03T12:40:25;7.95;;;4.85;;
46210;SDS011;52144;48.040;-1.594;2023-04-03T12:43:05;8.82;;;5.28;;
46210;SDS011;52144;48.040;-1.594;2023-04-03T12:45:47;7.07;;;4.47;;
46210;SDS011;52144;48.040;-1.594;2023-04-03T12:48:22;8.38;;;4.38;;
46210;SDS011;52144;48.040;-1.594;2023-04-03T12:50:53;7.15;;;4.63;;
46210;SDS011;52144;48.040;-1.594;2023-04-03T12:53:23;8.13;;;5.18;;
46210;SDS011;52144;48.040;-1.594;2023-04-03T12:55:54;6.60;;;4.20;;
46210;SDS011;52144;48.040;-1.594;2023-04-03T12:58:24;7.43;;;4.47;;
46210;SDS011;52144;48.040;-1.594;2023-04-03T13:01:00;6.63;;;4.38;;
46210;SDS011;52144;48.040;-1.594;2023-04-03T13:03:29;5.45;;;3.97;;
46210;SDS011;52144;48.040;-1.594;2023-04-03T13:05:59;7.68;;;4.38;;
46210;SDS011;52144;48.040;-1.594;2023-04-03T13:08:29;6.70;;;4.32;;
46210;SDS011;52144;48.040;-1.594;2023-04-03T13:10:58;6.63;;;4.65;;
46210;SDS011;52144;48.040;-1.594;2023-04-03T13:13:30;9.05;;;4.50;;
46210;SDS011;52144;48.040;-1.594;2023-04-03T13:15:58;5.60;;;3.50;;
46210;SDS011;52144;48.040;-1.594;2023-04-03T13:18:29;8.80;;;4.80;;
46210;SDS011;52144;48.040;-1.594;2023-04-03T13:21:01;8.07;;;4.57;;
46210;SDS011;52144;48.040;-1.594;2023-04-03T13:23:32;5.68;;;4.10;;
46210;SDS011;52144;48.040;-1.594;2023-04-03T13:26:03;4.35;;;3.38;;
46210;SDS011;52144;48.040;-1.594;2023-04-03T13:28:34;4.50;;;3.97;;
46210;SDS011;52144;48.040;-1.594;2023-04-03T13:31:04;6.82;;;4.43;;
46210;SDS011;52144;48.040;-1.594;2023-04-03T13:33:36;6.03;;;3.85;;
46210;SDS011;52144;48.040;-1.594;2023-04-03T13:36:06;5.80;;;4.43;;
46210;SDS011;52144;48.040;-1.594;2023-04-03T13:38:38;7.80;;;4.78;;
46210;SDS011;52144;48.040;-1.594;2023-04-03T13:41:21;5.63;;;3.85;;
46210;SDS011;52144;48.040;-1.594;2023-04-03T13:43:53;8.00;;;4.72;;
46210;SDS011;52144;48.040;-1.594;2023-04-03T13:46:35;4.22;;;3.78;;
46210;SDS011;52144;48.040;-1.594;2023-04-03T13:49:09;6.90;;;3.45;;
46210;SDS011;52144;48.040;-1.594;2023-04-03T13:51:45;10.48;;;3.65;;
46210;SDS011;52144;48.040;-1.594;2023-04-03T13:54:30;5.75;;;3.42;;
46210;SDS011;52144;48.040;-1.594;2023-04-03T13:56:59;6.15;;;3.78;;
46210;SDS011;52144;48.040;-1.594;2023-04-03T13:59:30;5.22;;;3.90;;
46210;SDS011;52144;48.040;-1.594;2023-04-03T14:02:10;8.95;;;3.60;;
46210;SDS011;52144;48.040;-1.594;2023-04-03T14:04:47;7.80;;;3.65;;
46210;SDS011;52144;48.040;-1.594;2023-04-03T14:07:19;6.05;;;3.75;;
46210;SDS011;52144;48.040;-1.594;2023-04-03T14:09:47;4.20;;;3.55;;
46210;SDS011;52144;48.040;-1.594;2023-04-03T14:12:17;7.57;;;4.60;;
46210;SDS011;52144;48.040;-1.594;2023-04-03T14:14:59;5.75;;;3.42;;
46210;SDS011;52144;48.040;-1.594;2023-04-03T14:17:27;5.70;;;4.15;;
46210;SDS011;52144;48.040;-1.594;2023-04-03T14:19:56;5.50;;;3.67;;
46210;SDS011;52144;48.040;-1.594;2023-04-03T14:22:25;4.40;;;3.10;;
46210;SDS011;52144;48.040;-1.594;2023-04-03T14:24:55;3.83;;;3.08;;
46210;SDS011;52144;48.040;-1.594;2023-04-03T14:27:24;7.68;;;3.38;;
46210;SDS011;52144;48.040;-1.594;2023-04-03T14:29:55;10.52;;;3.45;;
46210;SDS011;52144;48.040;-1.594;2023-04-03T14:32:26;4.63;;;3.63;;
46210;SDS011;52144;48.040;-1.594;2023-04-03T14:34:54;5.53;;;3.17;;
46210;SDS011;52144;48.040;-1.594;2023-04-03T14:37:24;4.97;;;3.78;;
46210;SDS011;52144;48.040;-1.594;2023-04-03T14:39:55;5.03;;;3.58;;
46210;SDS011;52144;48.040;-1.594;2023-04-03T14:42:25;5.35;;;2.95;;
46210;SDS011;52144;48.040;-1.594;2023-04-03T14:44:56;6.30;;;3.90;;
46210;SDS011;52144;48.040;-1.594;2023-04-03T14:47:26;6.97;;;3.95;;
46210;SDS011;52144;48.040;-1.594;2023-04-03T14:49:58;5.25;;;3.85;;
46210;SDS011;52144;48.040;-1.594;2023-04-03T14:52:27;4.38;;;3.67;;
46210;SDS011;52144;48.040;-1.594;2023-04-03T14:54:58;5.85;;;3.63;;
46210;SDS011;52144;48.040;-1.594;2023-04-03T14:57:27;3.53;;;2.95;;
46210;SDS011;52144;48.040;-1.594;2023-04-03T14:59:56;13.35;;;4.95;;
46210;SDS011;52144;48.040;-1.594;2023-04-03T15:02:27;5.85;;;3.55;;
46210;SDS011;52144;48.040;-1.594;2023-04-03T15:04:57;5.43;;;3.13;;
46210;SDS011;52144;48.040;-1.594;2023-04-03T15:07:26;7.95;;;3.42;;
46210;SDS011;52144;48.040;-1.594;2023-04-03T15:09:56;5.13;;;4.28;;
46210;SDS011;52144;48.040;-1.594;2023-04-03T15:12:24;7.75;;;4.10;;
46210;SDS011;52144;48.040;-1.594;2023-04-03T15:14:52;5.55;;;4.22;;